Main page
METAR-TAF:

METAR-TAF

Airports :

Ibadan Airport

Ibadan, Nigeria

latitude: 07-26N, longitude: 003-54E, elevation: 234 m

Current weather observation

The report was made 1 hour and 35 minutes ago, at 05:00 UTC
Wind 6 kt from the North/Northeast
Temperature 23°C
Humidity 31%
Pressure 1012 hPa
Visibility: 3000 m
haze

METAR: DNIB 270500Z 02006KT 3000 HZ NSC 23/05 Q1012

Time: 07:35 (06:35 UTC)

Forecast

The report was made 1 hour and 35 minutes ago, at 05:00 UTC
Forecast valid from 27 at 06 UTC to 28 at 12 UTC
Wind 10 kt from the Northeast
Visibility: 1500 m
haze
Becoming
from 27 at 09 UTC to 27 at 11 UTC
Visibility: 3000 m

TAF: DNIB 270500Z 2706/2812 04010KT 1500 HZ NSC BECMG 2709/2711 3000

Weather observations and forecasts of more than 4000 airports (METAR and TAF reports).

The available stations are represented by yellow and red dots on the map.

Hover mouse over dot to see the name of the station.

Then click to see weather observations and forecasts.

To change the map : click on the green buttons with a black cross to zoom in, on the green button with a dash to zoom out, or on the green arrows for adjacent maps.


METAR-TAF: